createdAt,value
2024-02-13T04:49:46.084Z,4.70
2024-02-13T04:53:49.167Z,4.70
2024-02-13T04:57:52.786Z,4.80
2024-02-13T05:01:55.611Z,4.90
2024-02-13T05:06:17.748Z,5.00
2024-02-13T05:10:20.640Z,5.00
2024-02-13T05:14:24.037Z,5.10
2024-02-13T05:18:28.266Z,5.10
2024-02-13T05:22:32.547Z,5.10
2024-02-13T05:26:36.533Z,5.10
2024-02-13T05:30:39.515Z,5.10
2024-02-13T05:34:42.777Z,5.10
2024-02-13T05:38:49.166Z,5.10
2024-02-13T05:42:55.762Z,5.10
2024-02-13T05:46:58.729Z,5.00
2024-02-13T05:51:01.678Z,5.10
2024-02-13T05:55:06.596Z,5.00
2024-02-13T05:59:12.520Z,5.00
2024-02-13T06:03:15.363Z,5.00
2024-02-13T06:07:18.228Z,4.90
2024-02-13T06:11:23.001Z,4.90
2024-02-13T06:15:26.881Z,4.90
2024-02-13T06:19:29.888Z,4.90
2024-02-13T06:23:32.866Z,4.90
2024-02-13T06:27:37.333Z,4.90
2024-02-13T06:31:42.292Z,4.90
2024-02-13T06:35:45.193Z,4.90
2024-02-13T06:39:48.225Z,4.90
2024-02-13T06:43:52.481Z,4.90
2024-02-13T06:47:56.789Z,4.90
2024-02-13T06:51:59.872Z,4.90
2024-02-13T06:56:02.804Z,4.90
2024-02-13T07:00:08.967Z,4.90
2024-02-13T07:04:12.455Z,4.90
2024-02-13T07:08:16.361Z,4.90
2024-02-13T07:12:19.318Z,4.90
2024-02-13T07:16:23.544Z,4.90
2024-02-13T07:20:27.596Z,4.90
2024-02-13T07:24:31.225Z,5.00
2024-02-13T07:28:34.061Z,5.00
2024-02-13T07:32:38.381Z,5.10
2024-02-13T07:36:41.848Z,5.10
2024-02-13T07:40:45.168Z,5.20
2024-02-13T07:44:48.525Z,5.30
2024-02-13T07:48:53.877Z,5.30
2024-02-13T07:52:56.777Z,5.40
2024-02-13T07:57:00.324Z,5.40
2024-02-13T08:01:03.208Z,5.50
2024-02-13T08:05:07.760Z,5.50
2024-02-13T08:09:10.933Z,5.60
2024-02-13T08:13:13.785Z,5.70
2024-02-13T15:15:59.131Z,9.30
2024-02-13T15:20:02.455Z,9.30
2024-02-13T15:24:06.859Z,9.30
2024-02-13T15:28:09.836Z,9.30
2024-02-13T15:32:15.433Z,9.30
2024-02-13T15:36:33.486Z,9.30
2024-02-13T15:40:54.343Z,9.30
2024-02-13T15:45:14.484Z,9.30
2024-02-13T15:49:24.915Z,10.00
2024-02-13T15:53:28.911Z,9.30
2024-02-13T15:57:36.237Z,9.50
2024-02-13T16:01:39.188Z,9.20
2024-02-13T16:05:43.481Z,9.20
2024-02-13T16:09:47.400Z,9.20
2024-02-13T16:13:51.173Z,9.20
2024-02-13T16:17:55.167Z,9.10
2024-02-13T16:21:59.421Z,9.10
2024-02-13T16:26:03.184Z,9.10
2024-02-13T16:30:07.782Z,9.10
2024-02-13T16:34:11.444Z,9.00
2024-02-13T16:38:16.527Z,9.00
2024-02-13T16:42:20.985Z,9.00
2024-02-13T16:46:25.528Z,8.90
2024-02-13T16:50:29.190Z,8.90
2024-02-13T16:54:33.756Z,8.90
2024-02-13T16:58:36.680Z,8.90
2024-02-13T17:02:40.234Z,8.80
2024-02-13T17:06:44.933Z,8.80
2024-02-13T17:10:49.221Z,8.80
2024-02-13T17:14:52.182Z,8.70
2024-02-13T17:18:55.858Z,8.70
2024-02-13T17:22:58.875Z,8.70
2024-02-13T17:27:03.502Z,8.60
2024-02-13T17:31:06.412Z,8.60
2024-02-13T17:35:10.319Z,8.60
2024-02-13T17:39:13.442Z,8.50
2024-02-13T17:43:18.848Z,8.50
2024-02-13T17:47:23.226Z,8.40
2024-02-13T17:51:26.427Z,8.40
2024-02-13T17:55:30.124Z,8.30
2024-02-13T17:59:36.353Z,8.30
2024-02-13T18:03:39.808Z,8.20
2024-02-13T18:07:43.978Z,8.20
2024-02-13T18:11:47.155Z,8.10
2024-02-13T18:15:52.986Z,8.10
2024-02-13T18:19:56.022Z,8.10
2024-02-13T18:24:02.209Z,8.00
2024-02-13T18:28:06.707Z,7.90
2024-02-13T18:32:11.013Z,7.90
2024-02-13T18:36:14.213Z,7.90
2024-02-13T18:40:19.393Z,7.90
2024-02-13T18:44:23.915Z,7.80
2024-02-13T18:48:28.375Z,7.80
2024-02-13T18:52:32.403Z,7.70
2024-02-13T18:56:35.965Z,7.70
2024-02-13T19:00:40.785Z,7.70
2024-02-13T19:04:45.213Z,7.70
2024-02-13T19:08:48.209Z,7.60
2024-02-13T19:12:51.069Z,7.60
2024-02-13T19:16:54.617Z,7.60
2024-02-13T19:21:00.075Z,7.50
2024-02-13T19:25:02.932Z,7.50
2024-02-13T19:33:36.829Z,7.40
2024-02-13T19:37:45.728Z,7.40
2024-02-13T19:41:48.588Z,7.40
2024-02-13T19:45:51.545Z,7.30
2024-02-13T19:49:56.516Z,7.30
2024-02-13T19:54:01.136Z,7.30
2024-02-13T19:58:04.468Z,7.30
2024-02-13T20:02:07.385Z,7.30
2024-02-13T20:06:10.419Z,7.30
2024-02-13T20:10:16.381Z,7.30
2024-02-13T20:14:20.949Z,7.30
2024-02-13T20:18:24.181Z,7.30
2024-02-13T20:22:27.127Z,7.40
2024-02-13T20:26:31.832Z,7.30
2024-02-13T20:30:36.661Z,7.40
2024-02-13T20:34:39.662Z,7.30
2024-02-13T20:38:44.828Z,7.40
2024-02-13T20:42:50.865Z,7.40
2024-02-13T20:46:54.373Z,7.40
2024-02-13T20:50:57.286Z,7.40
2024-02-13T20:55:00.293Z,7.40
2024-02-13T20:59:04.502Z,7.50
2024-02-13T21:03:07.468Z,7.50
2024-02-13T21:07:10.371Z,7.50
2024-02-13T21:11:14.379Z,7.50
2024-02-13T21:15:18.556Z,7.60
2024-02-13T21:19:22.491Z,7.60
2024-02-13T21:23:42.976Z,7.60
2024-02-13T21:27:45.905Z,7.70
2024-02-13T21:31:50.573Z,7.70
2024-02-13T21:35:54.185Z,7.70
2024-02-13T21:39:57.350Z,7.70
2024-02-13T21:44:00.182Z,7.80
2024-02-13T21:48:12.060Z,7.80
2024-02-13T21:52:15.085Z,7.80
2024-02-13T21:56:18.187Z,7.80
2024-02-13T22:00:21.441Z,7.90
2024-02-13T22:04:25.684Z,7.90
2024-02-13T22:08:28.622Z,7.90
2024-02-13T22:12:31.847Z,7.90
2024-02-13T22:16:34.666Z,7.90
2024-02-13T22:20:38.896Z,7.90
2024-02-13T22:24:42.047Z,7.90
2024-02-13T22:28:44.959Z,7.90
2024-02-13T22:32:48.012Z,8.00
2024-02-13T22:36:54.291Z,8.00
2024-02-13T22:40:57.443Z,8.00
2024-02-13T22:45:00.412Z,8.00
2024-02-13T22:49:03.395Z,8.00
2024-02-13T22:53:07.694Z,8.00
2024-02-13T22:57:10.579Z,8.00
2024-02-13T23:01:13.445Z,8.00
2024-02-13T23:05:16.783Z,8.00
2024-02-13T23:09:21.557Z,8.00
2024-02-13T23:13:28.722Z,8.00
2024-02-13T23:17:37.540Z,8.00
2024-02-13T23:21:40.519Z,8.00
2024-02-13T23:25:45.338Z,8.00
2024-02-13T23:29:49.958Z,8.00
2024-02-13T23:33:53.805Z,8.00
2024-02-13T23:37:57.032Z,8.00
2024-02-13T23:42:01.300Z,8.00
